createdAt,value
2023-03-30T00:01:11.411Z,52.11
2023-03-30T00:03:39.740Z,52.43
2023-03-30T00:06:09.091Z,52.58
2023-03-30T00:08:37.965Z,52.88
2023-03-30T00:11:11.976Z,52.84
2023-03-30T00:13:40.283Z,52.98
2023-03-30T00:16:10.592Z,53.19
2023-03-30T00:18:39.933Z,53.46
2023-03-30T00:21:09.940Z,53.24
2023-03-30T00:23:40.607Z,53.53
2023-03-30T00:26:08.752Z,53.70
2023-03-30T00:28:36.559Z,53.92
2023-03-30T00:31:04.723Z,53.70
2023-03-30T00:33:44.704Z,54.20
2023-03-30T00:36:16.939Z,53.94
2023-03-30T00:38:48.376Z,54.45
2023-03-30T00:41:16.887Z,54.47
2023-03-30T00:44:02.589Z,54.43
2023-03-30T00:46:31.808Z,54.53
2023-03-30T00:49:10.420Z,54.46
2023-03-30T00:51:42.346Z,54.40
2023-03-30T00:54:16.716Z,54.67
2023-03-30T00:56:45.394Z,54.75
2023-03-30T00:59:13.966Z,54.46
2023-03-30T01:01:42.239Z,54.41
2023-03-30T01:04:13.333Z,54.46
2023-03-30T01:06:43.396Z,54.81
2023-03-30T01:09:12.169Z,54.86
2023-03-30T01:11:40.473Z,54.71
2023-03-30T01:14:11.294Z,54.88
2023-03-30T01:17:04.989Z,55.14
2023-03-30T01:19:49.931Z,54.99
2023-03-30T01:22:39.399Z,54.99
2023-03-30T01:25:27.449Z,55.47
2023-03-30T01:28:04.661Z,55.64
2023-03-30T01:31:03.595Z,55.32
2023-03-30T01:33:49.978Z,55.13
2023-03-30T01:36:26.996Z,55.44
2023-03-30T01:39:33.952Z,55.80
2023-03-30T01:42:19.102Z,55.63
2023-03-30T01:44:55.424Z,55.94
2023-03-30T01:47:58.125Z,56.37
2023-03-30T01:50:32.726Z,56.41
2023-03-30T01:53:13.327Z,56.11
2023-03-30T01:55:55.657Z,56.45
2023-03-30T01:58:30.456Z,56.83
2023-03-30T02:01:01.783Z,56.99
2023-03-30T02:03:33.115Z,56.86
2023-03-30T02:06:10.632Z,56.77
2023-03-30T02:08:40.428Z,56.79
2023-03-30T02:11:09.265Z,57.02
2023-03-30T02:13:38.677Z,57.23
2023-03-30T02:16:13.698Z,57.29
2023-03-30T02:18:45.953Z,57.46
2023-03-30T02:21:14.017Z,56.93
2023-03-30T02:23:46.201Z,57.57
2023-03-30T02:26:14.317Z,57.82
2023-03-30T02:28:42.307Z,57.78
2023-03-30T02:31:14.827Z,57.44
2023-03-30T02:33:42.856Z,57.73
2023-03-30T02:36:23.741Z,57.49
2023-03-30T02:39:16.064Z,57.92
2023-03-30T02:41:54.566Z,57.64
2023-03-30T02:44:44.113Z,58.24
2023-03-30T02:47:27.935Z,57.94
2023-03-30T02:50:52.819Z,58.26
2023-03-30T02:53:57.602Z,58.48
2023-03-30T02:57:07.322Z,58.51
2023-03-30T02:59:49.270Z,58.47
2023-03-30T03:02:22.429Z,58.33
2023-03-30T03:04:56.426Z,58.57
2023-03-30T03:07:40.724Z,59.00
2023-03-30T03:10:09.154Z,58.64
2023-03-30T03:12:37.253Z,58.68
2023-03-30T03:15:05.873Z,58.50
2023-03-30T03:17:35.240Z,58.73
2023-03-30T03:20:05.055Z,58.86
2023-03-30T03:22:32.788Z,59.18
2023-03-30T03:25:02.517Z,59.31
2023-03-30T03:27:30.187Z,59.09
2023-03-30T03:30:11.396Z,59.70
2023-03-30T03:32:44.367Z,60.08
2023-03-30T03:35:12.628Z,59.44
2023-03-30T03:37:40.372Z,59.67
2023-03-30T03:40:11.231Z,59.80
2023-03-30T03:42:39.201Z,60.55
2023-03-30T03:45:12.350Z,60.44
2023-03-30T03:48:00.272Z,60.60
2023-03-30T03:50:55.997Z,60.22
2023-03-30T03:53:26.497Z,60.49
2023-03-30T03:55:57.766Z,60.24
2023-03-30T03:58:25.903Z,60.35
2023-03-30T04:00:58.890Z,60.47
2023-03-30T04:03:27.280Z,60.80
2023-03-30T04:05:58.900Z,60.75
2023-03-30T04:08:28.596Z,60.71
2023-03-30T04:11:12.156Z,60.90
2023-03-30T04:14:06.677Z,60.98
2023-03-30T04:16:58.128Z,60.87
2023-03-30T04:19:53.749Z,60.89
2023-03-30T04:22:41.991Z,60.86
2023-03-30T04:25:29.097Z,61.28
2023-03-30T04:28:29.761Z,61.40
2023-03-30T04:31:16.456Z,61.21
2023-03-30T04:34:04.943Z,61.35
2023-03-30T04:36:51.124Z,61.73
2023-03-30T04:39:32.266Z,61.48
2023-03-30T04:42:06.306Z,61.78
2023-03-30T04:44:48.638Z,61.60
2023-03-30T04:47:24.972Z,61.90
2023-03-30T04:50:16.066Z,61.78
2023-03-30T04:53:04.029Z,61.26
2023-03-30T04:55:51.758Z,61.76
2023-03-30T04:58:43.192Z,61.85
2023-03-30T05:01:34.172Z,61.58
2023-03-30T05:04:22.188Z,61.75
2023-03-30T05:07:09.076Z,61.73
2023-03-30T05:09:57.236Z,62.02
2023-03-30T05:12:50.392Z,61.68
2023-03-30T05:15:32.757Z,62.07
2023-03-30T05:18:19.371Z,62.13
2023-03-30T05:20:56.739Z,61.53
2023-03-30T05:23:43.336Z,62.13
2023-03-30T05:26:43.847Z,61.75
2023-03-30T05:29:32.117Z,62.05
2023-03-30T05:32:19.918Z,61.75
2023-03-30T05:35:21.676Z,62.04
2023-03-30T05:37:59.536Z,62.13
2023-03-30T05:40:46.123Z,62.59
2023-03-30T05:43:13.993Z,62.47
2023-03-30T05:46:02.491Z,62.37
2023-03-30T05:48:49.645Z,62.31
2023-03-30T05:51:20.596Z,62.22
2023-03-30T05:54:06.886Z,62.17
2023-03-30T05:56:57.639Z,62.16
2023-03-30T05:59:48.068Z,62.01
2023-03-30T06:02:27.423Z,61.74
2023-03-30T06:05:01.623Z,62.31
2023-03-30T06:07:30.623Z,62.14
2023-03-30T06:09:59.691Z,62.33
2023-03-30T06:12:28.978Z,61.95
2023-03-30T06:14:56.988Z,61.86
2023-03-30T06:17:44.929Z,62.18
2023-03-30T06:20:13.117Z,62.14
2023-03-30T06:22:43.891Z,62.13
2023-03-30T06:25:23.962Z,62.25
2023-03-30T06:27:52.288Z,62.01
2023-03-30T06:30:20.561Z,62.20
2023-03-30T06:32:50.602Z,62.02
2023-03-30T06:35:26.991Z,62.25
2023-03-30T06:37:55.293Z,61.92
2023-03-30T06:40:23.236Z,62.00
2023-03-30T06:42:51.777Z,61.92
2023-03-30T06:45:29.255Z,62.12
2023-03-30T06:47:57.148Z,62.24
2023-03-30T06:50:25.021Z,62.01
2023-03-30T06:53:04.513Z,61.92
2023-03-30T06:55:38.885Z,61.98
2023-03-30T06:58:07.089Z,62.08
2023-03-30T07:00:35.311Z,62.07
2023-03-30T07:03:21.418Z,62.20
2023-03-30T07:06:20.711Z,61.96
2023-03-30T07:08:49.849Z,61.98
2023-03-30T07:11:22.498Z,61.96
2023-03-30T07:13:50.695Z,62.10
2023-03-30T07:16:19.212Z,61.90
2023-03-30T07:18:48.201Z,61.88
2023-03-30T07:21:16.041Z,61.91
2023-03-30T07:23:44.796Z,61.90
2023-03-30T07:26:18.827Z,61.98
2023-03-30T07:29:01.438Z,61.82
2023-03-30T07:31:29.325Z,62.27
2023-03-30T07:33:57.843Z,62.08
2023-03-30T07:36:26.684Z,61.92
2023-03-30T07:38:54.676Z,61.95
2023-03-30T07:41:23.286Z,62.00
2023-03-30T07:43:53.991Z,61.84
2023-03-30T07:46:21.844Z,61.99
2023-03-30T07:48:52.842Z,61.98
2023-03-30T07:51:20.911Z,61.88
2023-03-30T07:53:54.804Z,61.92
2023-03-30T07:56:27.165Z,61.78
2023-03-30T07:58:55.819Z,61.97
2023-03-30T08:01:27.437Z,61.65
2023-03-30T08:04:16.007Z,61.57
2023-03-30T08:06:45.494Z,61.62
2023-03-30T08:09:13.751Z,61.36
2023-03-30T08:11:41.941Z,61.54
2023-03-30T08:14:09.867Z,61.47
2023-03-30T08:16:37.846Z,61.32
2023-03-30T08:19:05.977Z,61.56
2023-03-30T08:21:33.964Z,61.60
2023-03-30T08:24:02.112Z,61.51
2023-03-30T08:26:30.936Z,61.69
2023-03-30T08:28:58.729Z,61.70
2023-03-30T08:31:26.475Z,61.52
2023-03-30T08:33:54.371Z,61.69
2023-03-30T08:36:22.256Z,61.61
2023-03-30T08:38:50.604Z,61.96
2023-03-30T08:41:31.641Z,61.83
2023-03-30T08:44:02.365Z,62.30
2023-03-30T08:46:31.159Z,62.03
2023-03-30T08:49:05.057Z,62.24
2023-03-30T08:51:35.577Z,62.72
2023-03-30T08:54:07.165Z,63.16
2023-03-30T08:56:42.580Z,63.43
2023-03-30T08:59:27.243Z,63.36
2023-03-30T09:02:24.687Z,63.78
2023-03-30T09:05:01.605Z,63.85
2023-03-30T09:07:37.602Z,63.43
2023-03-30T09:10:11.446Z,63.40
2023-03-30T09:12:44.496Z,63.40
2023-03-30T09:15:18.295Z,63.12
2023-03-30T09:18:00.907Z,63.34
2023-03-30T09:20:31.161Z,62.94
2023-03-30T09:23:01.797Z,62.69
2023-03-30T09:25:38.814Z,62.27
2023-03-30T09:28:17.276Z,62.18
2023-03-30T09:30:50.138Z,61.52
2023-03-30T09:33:31.903Z,61.31
2023-03-30T09:36:17.922Z,61.03
2023-03-30T09:38:45.821Z,60.91
2023-03-30T09:41:21.770Z,60.70
2023-03-30T09:43:51.877Z,60.31
2023-03-30T09:46:19.536Z,60.41
2023-03-30T09:48:48.790Z,60.17
2023-03-30T09:51:21.009Z,60.46
2023-03-30T09:53:52.313Z,59.76
2023-03-30T09:56:35.549Z,59.29
2023-03-30T09:59:33.108Z,58.92
2023-03-30T10:02:13.227Z,58.63
2023-03-30T10:05:02.494Z,57.84
2023-03-30T10:07:40.850Z,58.21
2023-03-30T10:10:27.435Z,58.16
2023-03-30T10:13:02.685Z,57.58
2023-03-30T10:15:35.554Z,56.91
2023-03-30T10:18:24.258Z,56.57
2023-03-30T10:21:05.034Z,56.26
2023-03-30T10:23:43.332Z,55.93
2023-03-30T10:26:20.540Z,55.42
2023-03-30T10:29:07.581Z,54.09
2023-03-30T10:31:38.197Z,54.07
2023-03-30T10:34:18.874Z,53.89
2023-03-30T10:36:53.240Z,54.29
2023-03-30T10:39:33.707Z,54.57
2023-03-30T10:42:05.004Z,54.45
2023-03-30T10:44:44.706Z,54.36
2023-03-30T10:47:42.681Z,54.25
2023-03-30T10:50:41.817Z,53.75
2023-03-30T10:53:24.595Z,53.12
2023-03-30T10:56:07.454Z,52.93
2023-03-30T10:58:35.435Z,53.22
2023-03-30T11:01:09.597Z,52.67
2023-03-30T11:03:40.762Z,52.11
2023-03-30T11:06:24.699Z,52.31
2023-03-30T11:08:54.662Z,52.23
2023-03-30T11:11:32.951Z,52.17
2023-03-30T11:14:06.147Z,52.47
2023-03-30T11:16:47.834Z,52.60
2023-03-30T11:20:06.430Z,52.56
2023-03-30T11:22:43.927Z,52.85
2023-03-30T11:25:22.027Z,52.76
2023-03-30T11:27:58.425Z,52.38
2023-03-30T11:30:31.549Z,53.05
2023-03-30T11:33:07.978Z,52.19
2023-03-30T11:35:46.173Z,51.89
2023-03-30T11:38:16.923Z,51.66
2023-03-30T11:40:53.075Z,50.90
2023-03-30T11:43:23.592Z,50.38
2023-03-30T11:46:15.841Z,50.21
2023-03-30T11:49:19.036Z,49.59
2023-03-30T11:52:16.037Z,48.97
2023-03-30T11:55:00.127Z,49.01
2023-03-30T11:57:40.356Z,48.98
2023-03-30T12:00:35.703Z,48.46
2023-03-30T12:03:08.140Z,48.66
2023-03-30T12:05:42.522Z,48.48
2023-03-30T12:08:31.590Z,48.70
2023-03-30T12:11:27.403Z,48.32
2023-03-30T12:13:55.771Z,48.55
2023-03-30T12:16:37.826Z,48.88
2023-03-30T12:19:13.659Z,49.21
2023-03-30T12:21:53.354Z,49.48
2023-03-30T12:24:44.899Z,49.50
2023-03-30T12:27:12.704Z,50.05
2023-03-30T12:32:28.369Z,50.87
2023-03-30T12:34:57.881Z,51.38
2023-03-30T12:37:37.571Z,52.03
2023-03-30T12:40:14.589Z,52.23
2023-03-30T12:42:54.205Z,52.50
2023-03-30T12:45:34.662Z,52.96
2023-03-30T12:48:26.637Z,53.25
2023-03-30T12:51:03.440Z,53.72
2023-03-30T12:53:37.107Z,54.07
2023-03-30T12:56:26.429Z,54.33
2023-03-30T12:59:00.113Z,54.53
2023-03-30T13:01:50.351Z,54.76
2023-03-30T13:04:23.986Z,55.10
2023-03-30T13:07:02.581Z,55.37
2023-03-30T13:09:33.634Z,55.70
2023-03-30T13:12:01.535Z,55.89
2023-03-30T13:14:34.197Z,55.98
2023-03-30T13:17:02.031Z,56.03
2023-03-30T13:19:32.785Z,56.39
2023-03-30T13:22:12.866Z,56.54
2023-03-30T13:25:13.248Z,56.75
2023-03-30T13:27:41.941Z,56.66
2023-03-30T13:30:09.820Z,56.78
2023-03-30T13:32:47.011Z,56.83
2023-03-30T13:35:36.332Z,56.88
2023-03-30T13:38:19.475Z,57.23
2023-03-30T13:41:06.062Z,57.06
2023-03-30T13:43:58.262Z,57.03
2023-03-30T13:46:51.105Z,57.11
2023-03-30T13:49:50.131Z,57.19
2023-03-30T13:52:22.074Z,57.28
2023-03-30T13:54:50.390Z,57.33
2023-03-30T13:57:26.708Z,57.44
2023-03-30T14:00:21.505Z,57.14
2023-03-30T14:02:49.521Z,57.36
2023-03-30T14:05:26.362Z,57.28
2023-03-30T14:07:58.194Z,57.33
2023-03-30T14:10:27.114Z,57.16
2023-03-30T14:12:57.691Z,57.38
2023-03-30T14:15:35.817Z,57.28
2023-03-30T14:18:05.419Z,57.02
2023-03-30T14:20:54.134Z,57.14
2023-03-30T14:23:33.845Z,57.11
2023-03-30T14:26:13.138Z,57.33
2023-03-30T14:28:42.603Z,57.21
2023-03-30T14:31:17.621Z,57.06
2023-03-30T14:33:46.258Z,57.06
2023-03-30T14:36:19.238Z,56.91
2023-03-30T14:38:50.371Z,56.77
2023-03-30T14:41:27.650Z,56.97
2023-03-30T14:44:06.536Z,57.27
2023-03-30T14:46:43.217Z,57.86
2023-03-30T14:49:27.520Z,58.36
2023-03-30T14:52:08.079Z,59.37
2023-03-30T14:54:37.699Z,60.30
2023-03-30T14:57:09.635Z,60.96
2023-03-30T15:00:02.772Z,60.82
2023-03-30T15:02:35.050Z,61.46
2023-03-30T15:05:09.823Z,61.93
2023-03-30T15:07:37.655Z,63.63
2023-03-30T15:10:06.101Z,63.45
2023-03-30T15:12:41.963Z,63.90
2023-03-30T15:15:23.784Z,64.33
2023-03-30T15:17:52.212Z,64.53
2023-03-30T15:20:20.545Z,65.37
2023-03-30T15:22:51.893Z,65.24
2023-03-30T15:25:32.535Z,65.35
2023-03-30T15:28:08.178Z,67.15
2023-03-30T15:30:40.030Z,66.20
2023-03-30T15:33:23.805Z,67.24
2023-03-30T15:35:54.153Z,67.15
2023-03-30T15:38:36.417Z,68.18
2023-03-30T15:41:16.712Z,69.42
2023-03-30T15:43:56.817Z,68.95
2023-03-30T15:46:28.142Z,69.30
2023-03-30T15:48:59.594Z,69.19
2023-03-30T15:51:28.759Z,69.30
2023-03-30T15:54:31.473Z,69.68
2023-03-30T15:57:11.653Z,68.34
2023-03-30T15:59:49.826Z,68.42
2023-03-30T16:03:12.522Z,67.88
2023-03-30T16:05:41.642Z,67.88
2023-03-30T16:08:16.882Z,68.15
2023-03-30T16:10:49.068Z,68.61
2023-03-30T16:13:18.406Z,68.58
2023-03-30T16:15:49.183Z,68.50
2023-03-30T16:18:28.025Z,67.79
2023-03-30T16:21:05.328Z,68.15
2023-03-30T16:23:34.589Z,67.52
2023-03-30T16:26:04.075Z,67.82
2023-03-30T16:28:32.819Z,67.41
2023-03-30T16:31:06.866Z,67.30
2023-03-30T16:33:35.498Z,67.39
2023-03-30T16:36:06.292Z,67.78
2023-03-30T16:38:36.698Z,67.53
2023-03-30T16:41:06.012Z,67.42
2023-03-30T16:43:34.283Z,67.73
2023-03-30T16:46:02.149Z,67.92
2023-03-30T16:48:30.129Z,67.94
2023-03-30T16:50:57.928Z,67.82
2023-03-30T16:53:26.137Z,68.11
2023-03-30T16:55:53.954Z,69.04
2023-03-30T16:58:21.792Z,67.97
2023-03-30T17:00:52.098Z,68.28
2023-03-30T17:03:20.564Z,68.36
2023-03-30T17:05:49.185Z,68.69
2023-03-30T17:08:28.414Z,69.16
2023-03-30T17:11:00.905Z,69.32
2023-03-30T17:13:30.677Z,69.31
2023-03-30T17:16:01.239Z,69.22
2023-03-30T17:18:29.327Z,68.88
2023-03-30T17:20:59.657Z,69.75
2023-03-30T17:23:29.878Z,69.44
2023-03-30T17:26:00.157Z,70.58
2023-03-30T17:28:30.905Z,70.19
2023-03-30T17:31:01.291Z,70.02
2023-03-30T17:33:31.707Z,70.26
2023-03-30T17:36:26.575Z,70.55
2023-03-30T17:38:54.616Z,70.53
2023-03-30T17:41:26.568Z,70.51
2023-03-30T17:43:54.967Z,70.25
2023-03-30T17:46:26.046Z,70.46
2023-03-30T17:48:54.739Z,70.39
2023-03-30T17:51:22.742Z,70.46
2023-03-30T17:53:50.562Z,71.12
2023-03-30T17:56:19.067Z,70.56
2023-03-30T17:58:48.389Z,70.59
2023-03-30T18:01:16.909Z,71.20
2023-03-30T18:03:45.048Z,70.82
2023-03-30T18:06:13.625Z,71.27
2023-03-30T18:08:43.224Z,72.18
2023-03-30T18:11:11.470Z,71.40
2023-03-30T18:13:40.232Z,71.81
2023-03-30T18:16:13.012Z,72.00
2023-03-30T18:18:41.948Z,72.02
2023-03-30T18:21:10.730Z,72.47
2023-03-30T18:27:08.880Z,73.24
2023-03-30T18:29:37.912Z,72.51
2023-03-30T18:32:06.667Z,72.81
2023-03-30T18:34:37.416Z,73.08
2023-03-30T18:37:06.301Z,73.99
2023-03-30T18:39:34.537Z,73.48
2023-03-30T18:42:02.443Z,75.49
2023-03-30T18:44:31.079Z,75.39
2023-03-30T18:46:58.811Z,75.47
2023-03-30T18:49:26.561Z,74.50
2023-03-30T18:51:54.789Z,74.64
2023-03-30T18:54:22.592Z,75.61
2023-03-30T18:56:51.336Z,77.10
2023-03-30T18:59:22.950Z,77.04
2023-03-30T19:01:51.477Z,76.12
2023-03-30T19:04:19.829Z,77.77
2023-03-30T19:06:48.126Z,78.26
2023-03-30T19:09:15.853Z,76.84
2023-03-30T19:11:43.853Z,78.01
2023-03-30T19:14:11.965Z,77.09
2023-03-30T19:16:40.497Z,77.09
2023-03-30T19:19:14.922Z,76.89
2023-03-30T19:21:43.618Z,79.40
2023-03-30T19:24:13.859Z,79.04
2023-03-30T19:26:42.244Z,78.19
2023-03-30T19:29:10.105Z,78.90
2023-03-30T19:31:39.071Z,78.56
2023-03-30T19:34:08.010Z,77.98
2023-03-30T19:36:36.705Z,78.21
2023-03-30T19:39:05.571Z,79.02
2023-03-30T19:41:33.723Z,79.59
2023-03-30T19:44:02.690Z,78.61
2023-03-30T19:46:31.553Z,78.75
2023-03-30T19:49:01.511Z,79.73
2023-03-30T19:51:29.265Z,79.64
2023-03-30T19:53:57.967Z,78.83
2023-03-30T19:56:26.884Z,79.34
2023-03-30T19:58:56.587Z,79.64
2023-03-30T20:01:24.381Z,80.47
2023-03-30T20:03:52.546Z,80.19
2023-03-30T20:06:20.811Z,80.73
2023-03-30T20:08:51.734Z,80.93
2023-03-30T20:11:19.898Z,81.12
2023-03-30T20:13:48.704Z,81.68
2023-03-30T20:16:20.520Z,82.60
2023-03-30T20:18:51.084Z,82.65
2023-03-30T20:21:23.811Z,82.78
2023-03-30T20:23:51.518Z,83.38
2023-03-30T20:26:21.416Z,84.03
2023-03-30T20:28:49.310Z,84.43
2023-03-30T20:31:17.209Z,84.70
2023-03-30T20:33:46.695Z,84.51
2023-03-30T20:36:17.129Z,84.53
2023-03-30T20:38:45.941Z,84.53
2023-03-30T20:41:15.520Z,85.10
2023-03-30T20:43:55.767Z,85.12
2023-03-30T20:46:26.022Z,85.86
2023-03-30T20:49:01.944Z,85.56
2023-03-30T20:51:30.103Z,85.82
2023-03-30T20:53:58.038Z,85.85
2023-03-30T20:56:27.935Z,86.13
2023-03-30T20:58:56.518Z,86.47
2023-03-30T21:01:29.416Z,86.62
2023-03-30T21:03:59.559Z,86.51
2023-03-30T21:06:29.880Z,86.83
2023-03-30T21:09:00.959Z,86.75
2023-03-30T21:11:30.768Z,86.59
2023-03-30T21:13:58.583Z,86.83
2023-03-30T21:16:26.633Z,87.17
2023-03-30T21:18:54.593Z,87.37
2023-03-30T21:21:22.610Z,87.34
2023-03-30T21:23:50.544Z,87.55
2023-03-30T21:26:18.692Z,87.69
2023-03-30T21:28:46.694Z,87.92
2023-03-30T21:31:15.259Z,87.69
2023-03-30T21:33:43.599Z,88.11
2023-03-30T21:36:11.993Z,88.17
2023-03-30T21:38:39.862Z,88.29
2023-03-30T21:41:11.544Z,88.88
2023-03-30T21:43:43.009Z,88.72
2023-03-30T21:46:16.546Z,88.60
2023-03-30T21:48:46.237Z,88.51
2023-03-30T21:51:23.164Z,88.81
2023-03-30T21:53:52.491Z,88.81
2023-03-30T21:56:23.679Z,88.70
2023-03-30T21:58:51.826Z,88.44
2023-03-30T22:01:21.346Z,88.36
2023-03-30T22:03:49.837Z,88.72
2023-03-30T22:06:18.572Z,88.74
2023-03-30T22:08:47.244Z,88.63
2023-03-30T22:11:18.035Z,88.79
2023-03-30T22:13:48.006Z,88.53
2023-03-30T22:16:24.533Z,88.67
2023-03-30T22:18:52.307Z,88.37
2023-03-30T22:21:23.999Z,88.52
2023-03-30T22:23:54.800Z,88.88
2023-03-30T22:26:22.966Z,88.72
2023-03-30T22:28:50.786Z,88.97
2023-03-30T22:31:18.614Z,88.79
2023-03-30T22:33:46.409Z,88.90
2023-03-30T22:36:20.418Z,89.26
2023-03-30T22:38:50.126Z,89.33
2023-03-30T22:41:23.582Z,89.01
2023-03-30T22:43:56.637Z,89.21
2023-03-30T22:46:26.156Z,89.23
2023-03-30T22:48:56.016Z,88.94
2023-03-30T22:51:27.980Z,89.00
2023-03-30T22:54:00.291Z,88.76
2023-03-30T22:56:29.382Z,89.13
2023-03-30T22:58:59.870Z,88.63
2023-03-30T23:01:32.119Z,88.72
2023-03-30T23:04:00.699Z,88.94
2023-03-30T23:06:28.572Z,88.66
2023-03-30T23:08:56.280Z,88.49
2023-03-30T23:11:26.509Z,88.66
2023-03-30T23:13:55.999Z,88.50
2023-03-30T23:16:23.910Z,88.38
2023-03-30T23:18:51.623Z,88.52
2023-03-30T23:21:22.155Z,88.28
2023-03-30T23:23:50.833Z,88.31
2023-03-30T23:26:19.892Z,88.15
2023-03-30T23:28:47.698Z,88.14
2023-03-30T23:31:17.757Z,88.14
2023-03-30T23:33:46.244Z,87.93
2023-03-30T23:36:16.656Z,87.82
2023-03-30T23:38:45.838Z,87.78
2023-03-30T23:41:15.902Z,87.91
2023-03-30T23:43:44.225Z,87.93
2023-03-30T23:46:13.387Z,87.57
2023-03-30T23:48:42.214Z,87.72
2023-03-30T23:51:10.260Z,87.63
2023-03-30T23:53:41.711Z,87.67
2023-03-30T23:56:13.190Z,87.67
2023-03-30T23:58:41.820Z,87.48
